Time;durP1;ratioP1;P1;durP2;ratioP2;P2;SDS_P1;SDS_P2;PMS_P1;PMS_P2;Temp;Humidity;BMP_temperature;BMP_pressure;BME280_temperature;BME280_humidity;BME280_pressure;Samples;Min_cycle;Max_cycle;Signal;HPM_P1;HPM_P2
2022/08/08 00:00:09;;;;;;;5.88;2.72;;;;;;;;;;6248376;28;20091;-50
2022/08/08 00:03:40;;;;;;;5.75;2.42;;;;;;;;;;6254294;28;20088;-51
2022/08/08 00:06:46;;;;;;;5.82;2.65;;;;;;;;;;6253850;28;20095;-57
2022/08/08 00:09:58;;;;;;;4.10;2.53;;;;;;;;;;6247946;28;20579;-57
2022/08/08 00:13:30;;;;;;;7.05;2.97;;;;;;;;;;6251822;28;20053;-60
2022/08/08 00:16:55;;;;;;;6.53;2.50;;;;;;;;;;6249885;28;20874;-59
2022/08/08 00:20:03;;;;;;;3.67;2.15;;;;;;;;;;6246918;28;20053;-56
2022/08/08 00:23:24;;;;;;;4.13;2.42;;;;;;;;;;6248757;28;20575;-59
2022/08/08 00:26:38;;;;;;;8.75;2.85;;;;;;;;;;6250344;28;20045;-54
2022/08/08 00:29:47;;;;;;;5.38;2.47;;;;;;;;;;6246914;28;20063;-59
2022/08/08 00:33:00;;;;;;;5.18;2.53;;;;;;;;;;6254536;28;20048;-58
2022/08/08 00:36:27;;;;;;;5.75;2.70;;;;;;;;;;6250673;28;20128;-60
2022/08/08 00:39:56;;;;;;;5.78;2.63;;;;;;;;;;6254253;28;20048;-60
2022/08/08 00:43:24;;;;;;;5.97;2.50;;;;;;;;;;6244166;28;20071;-59
2022/08/08 00:46:55;;;;;;;5.32;2.45;;;;;;;;;;6257905;28;20049;-59
2022/08/08 00:50:40;;;;;;;5.95;2.58;;;;;;;;;;6258510;28;20734;-60
2022/08/08 00:54:08;;;;;;;7.45;3.00;;;;;;;;;;6260834;28;20052;-56
2022/08/08 00:57:30;;;;;;;5.47;2.58;;;;;;;;;;6254557;28;20496;-54
2022/08/08 01:00:57;;;;;;;6.40;2.97;;;;;;;;;;6250733;28;20191;-54
2022/08/08 01:04:26;;;;;;;5.25;2.60;;;;;;;;;;6237603;28;20045;-60
2022/08/08 01:07:54;;;;;;;5.30;2.67;;;;;;;;;;6251612;28;20199;-55
2022/08/08 01:11:26;;;;;;;5.03;2.80;;;;;;;;;;6254815;28;20045;-58
2022/08/08 01:15:17;;;;;;;5.45;2.60;;;;;;;;;;6253189;28;20052;-58
2022/08/08 01:18:52;;;;;;;6.93;2.50;;;;;;;;;;6217003;28;20072;-58
2022/08/08 01:22:23;;;;;;;5.60;2.78;;;;;;;;;;6257585;28;20043;-57
2022/08/08 01:25:44;;;;;;;4.70;2.58;;;;;;;;;;6258673;28;20052;-55
2022/08/08 01:29:04;;;;;;;5.18;2.47;;;;;;;;;;6255804;28;20056;-60
2022/08/08 01:32:21;;;;;;;5.43;2.90;;;;;;;;;;6257582;28;20048;-55
2022/08/08 01:35:56;;;;;;;6.68;2.83;;;;;;;;;;6257906;28;20063;-58
2022/08/08 01:39:07;;;;;;;6.20;2.80;;;;;;;;;;6255044;28;20739;-58
2022/08/08 01:42:26;;;;;;;4.77;2.50;;;;;;;;;;6257991;28;20057;-59
2022/08/08 01:46:04;;;;;;;5.75;2.72;;;;;;;;;;6258057;28;20061;-57
2022/08/08 01:49:34;;;;;;;6.45;2.70;;;;;;;;;;6245930;28;20124;-59
2022/08/08 01:52:50;;;;;;;4.90;2.60;;;;;;;;;;6288519;28;20118;-56
2022/08/08 01:56:02;;;;;;;7.63;2.83;;;;;;;;;;6285279;28;20074;-54
2022/08/08 01:59:02;;;;;;;;;;;;;;;;;;6284883;28;20127;-59
2022/08/08 02:02:09;;;;;;;4.60;2.50;;;;;;;;;;6286165;28;20329;-54
2022/08/08 02:05:25;;;;;;;5.53;3.03;;;;;;;;;;6281607;28;20037;-60
2022/08/08 02:09:04;;;;;;;4.60;2.65;;;;;;;;;;6283683;28;20048;-58
2022/08/08 02:12:17;;;;;;;7.18;3.15;;;;;;;;;;6278081;28;20553;-56
2022/08/08 02:15:39;;;;;;;7.00;2.80;;;;;;;;;;6260194;28;20056;-60
2022/08/08 02:18:51;;;;;;;7.03;2.60;;;;;;;;;;6268097;28;20052;-60
2022/08/08 02:25:17;;;;;;;5.78;2.95;;;;;;;;;;6275544;28;20063;-59
2022/08/08 02:29:05;;;;;;;5.78;2.50;;;;;;;;;;6283460;28;20036;-58
2022/08/08 02:32:21;;;;;;;5.60;2.80;;;;;;;;;;6275121;28;20147;-59
2022/08/08 02:35:55;;;;;;;6.00;3.00;;;;;;;;;;6282073;28;20056;-59
2022/08/08 02:39:23;;;;;;;5.47;2.80;;;;;;;;;;6287252;28;20048;-59
2022/08/08 02:43:05;;;;;;;5.60;2.70;;;;;;;;;;6289230;28;20135;-52
2022/08/08 02:46:31;;;;;;;5.80;2.90;;;;;;;;;;6281828;28;20072;-60
2022/08/08 02:49:41;;;;;;;7.75;2.83;;;;;;;;;;6288641;28;20124;-61
2022/08/08 02:52:53;;;;;;;6.15;2.80;;;;;;;;;;6286568;28;20056;-60
2022/08/08 02:56:02;;;;;;;6.45;2.88;;;;;;;;;;6282003;28;20045;-56
2022/08/08 02:59:31;;;;;;;5.15;2.60;;;;;;;;;;6290915;28;20475;-54
2022/08/08 03:02:57;;;;;;;5.30;2.92;;;;;;;;;;6289276;28;20076;-60
2022/08/08 03:06:18;;;;;;;6.72;3.40;;;;;;;;;;6285237;28;20053;-56
2022/08/08 03:09:34;;;;;;;6.55;3.35;;;;;;;;;;6285702;28;20585;-59
2022/08/08 03:12:51;;;;;;;7.20;3.33;;;;;;;;;;6288650;28;20190;-57
2022/08/08 03:16:16;;;;;;;9.90;2.90;;;;;;;;;;6289818;28;20466;-57
2022/08/08 03:19:25;;;;;;;;;;;;;;;;;;6287402;28;20080;-58
2022/08/08 03:22:25;;;;;;;5.93;2.60;;;;;;;;;;6284308;28;20007;-55
2022/08/08 03:25:27;;;;;;;4.82;2.90;;;;;;;;;;6286648;28;20491;-55
2022/08/08 03:28:46;;;;;;;6.68;2.85;;;;;;;;;;6287862;28;20052;-55
2022/08/08 03:35:09;;;;;;;;;;;;;;;;;;6286148;28;20045;-59
2022/08/08 03:38:10;;;;;;;5.43;2.92;;;;;;;;;;6276992;28;19971;-58
2022/08/08 03:41:10;;;;;;;7.25;2.90;;;;;;;;;;6283007;28;20406;-59
2022/08/08 03:44:11;;;;;;;8.48;3.20;;;;;;;;;;6281224;28;20047;-59
2022/08/08 03:47:19;;;;;;;5.28;3.10;;;;;;;;;;6273482;28;20063;-57
2022/08/08 03:50:20;;;;;;;6.43;3.08;;;;;;;;;;6268521;28;22932;-61
2022/08/08 03:53:20;;;;;;;6.68;2.90;;;;;;;;;;6262476;28;20032;-57
2022/08/08 03:56:21;;;;;;;5.20;2.70;;;;;;;;;;6264896;28;20139;-57
2022/08/08 03:59:29;;;;;;;8.33;3.23;;;;;;;;;;6269616;28;20449;-58
2022/08/08 04:02:30;;;;;;;11.15;3.10;;;;;;;;;;6259483;28;20922;-59
2022/08/08 04:05:36;;;;;;;6.82;3.20;;;;;;;;;;6262938;28;20052;-60
2022/08/08 04:08:37;;;;;;;6.55;3.00;;;;;;;;;;6264938;28;20053;-56
2022/08/08 04:11:39;;;;;;;6.65;2.92;;;;;;;;;;6279642;28;20505;-60
2022/08/08 04:14:39;;;;;;;5.93;2.75;;;;;;;;;;6264955;28;20465;-60
2022/08/08 04:17:40;;;;;;;5.55;2.80;;;;;;;;;;6263385;28;20412;-56
2022/08/08 04:20:40;;;;;;;5.82;2.80;;;;;;;;;;6262509;28;20492;-60
2022/08/08 04:23:42;;;;;;;6.03;2.80;;;;;;;;;;6269997;28;20457;-57
2022/08/08 04:26:42;;;;;;;6.57;3.13;;;;;;;;;;6264278;28;20052;-54
2022/08/08 04:29:43;;;;;;;4.35;2.55;;;;;;;;;;6263387;28;20048;-55
2022/08/08 04:32:44;;;;;;;9.88;3.47;;;;;;;;;;6267084;28;20422;-54
2022/08/08 04:35:44;;;;;;;9.15;2.83;;;;;;;;;;6261257;28;20049;-56
2022/08/08 04:38:45;;;;;;;6.57;2.50;;;;;;;;;;6254921;28;21845;-57
2022/08/08 04:41:45;;;;;;;5.88;2.78;;;;;;;;;;6267969;28;20049;-61
2022/08/08 04:44:46;;;;;;;6.55;2.70;;;;;;;;;;6257884;28;20446;-59
2022/08/08 04:47:47;;;;;;;6.88;3.50;;;;;;;;;;6265384;28;20079;-59
2022/08/08 04:50:47;;;;;;;7.72;3.33;;;;;;;;;;6266729;28;20041;-57
2022/08/08 04:53:48;;;;;;;5.05;2.95;;;;;;;;;;6271368;28;20040;-57
2022/08/08 04:56:48;;;;;;;8.45;3.47;;;;;;;;;;6279154;28;20055;-59
2022/08/08 04:59:49;;;;;;;5.35;2.92;;;;;;;;;;6266801;28;20055;-58
2022/08/08 05:02:50;;;;;;;7.88;3.25;;;;;;;;;;6281534;28;20048;-53
2022/08/08 05:05:50;;;;;;;5.25;3.15;;;;;;;;;;6260818;28;20072;-57
2022/08/08 05:08:51;;;;;;;7.07;3.75;;;;;;;;;;6264032;28;20048;-57
2022/08/08 05:11:52;;;;;;;6.50;3.72;;;;;;;;;;6263053;28;20060;-57
2022/08/08 05:14:52;;;;;;;7.43;3.45;;;;;;;;;;6274368;28;20052;-58
2022/08/08 05:17:53;;;;;;;6.22;3.75;;;;;;;;;;6265187;28;20689;-61
2022/08/08 05:20:53;;;;;;;7.90;3.85;;;;;;;;;;6262036;28;20053;-58
2022/08/08 05:23:54;;;;;;;5.68;3.42;;;;;;;;;;6264616;28;20547;-59
2022/08/08 05:26:54;;;;;;;6.53;3.22;;;;;;;;;;6265768;28;20056;-60
2022/08/08 05:29:55;;;;;;;6.65;3.70;;;;;;;;;;6256950;28;20126;-59
2022/08/08 05:32:56;;;;;;;7.75;3.38;;;;;;;;;;6264694;28;20045;-60
2022/08/08 05:36:00;;;;;;;6.97;3.65;;;;;;;;;;6268920;28;20131;-60
2022/08/08 05:39:04;;;;;;;8.50;3.30;;;;;;;;;;6287217;28;20041;-60
2022/08/08 05:42:05;;;;;;;5.95;3.30;;;;;;;;;;6285479;28;20147;-58
2022/08/08 05:45:08;;;;;;;9.70;3.70;;;;;;;;;;6283645;28;20053;-60
2022/08/08 05:48:10;;;;;;;6.38;3.33;;;;;;;;;;6264838;28;20072;-61
2022/08/08 05:51:11;;;;;;;7.57;3.22;;;;;;;;;;6264463;28;20048;-60
2022/08/08 05:54:12;;;;;;;6.88;3.45;;;;;;;;;;6269134;28;20047;-60
2022/08/08 05:57:16;;;;;;;8.00;3.35;;;;;;;;;;6266201;28;20052;-60
2022/08/08 06:00:18;;;;;;;6.32;3.30;;;;;;;;;;6267234;28;22790;-59
2022/08/08 06:03:19;;;;;;;6.47;3.47;;;;;;;;;;6266268;28;20094;-60
2022/08/08 06:06:24;;;;;;;9.75;3.80;;;;;;;;;;6266203;28;20092;-60
2022/08/08 06:09:32;;;;;;;7.22;3.97;;;;;;;;;;6265301;28;20416;-59
2022/08/08 06:12:35;;;;;;;10.02;3.28;;;;;;;;;;6266779;28;20049;-61
2022/08/08 06:15:37;;;;;;;8.45;3.78;;;;;;;;;;6260519;28;20045;-60
2022/08/08 06:18:39;;;;;;;9.88;3.60;;;;;;;;;;6263425;28;20497;-60
2022/08/08 06:21:40;;;;;;;;;;;;;;;;;;6263253;28;20135;-60
2022/08/08 06:24:40;;;;;;;5.45;2.72;;;;;;;;;;6264693;28;19934;-60
2022/08/08 06:28:02;;;;;;;5.32;2.58;;;;;;;;;;6262183;28;20055;-58
2022/08/08 06:31:05;;;;;;;7.47;2.55;;;;;;;;;;6265257;28;20136;-60
2022/08/08 06:34:15;;;;;;;6.07;2.72;;;;;;;;;;6259034;28;20051;-60
2022/08/08 06:37:21;;;;;;;6.72;2.40;;;;;;;;;;6260281;28;20559;-60
2022/08/08 06:40:24;;;;;;;10.23;2.60;;;;;;;;;;6261838;28;20088;-60
2022/08/08 06:43:32;;;;;;;6.30;2.78;;;;;;;;;;6266219;28;20053;-59
2022/08/08 06:46:32;;;;;;;6.32;2.20;;;;;;;;;;6257389;28;20077;-60
2022/08/08 06:49:34;;;;;;;6.28;2.33;;;;;;;;;;6262486;28;20572;-62
2022/08/08 06:52:35;;;;;;;4.63;2.00;;;;;;;;;;6260001;28;20049;-60
2022/08/08 06:55:37;;;;;;;7.78;2.45;;;;;;;;;;6269764;28;20049;-60
2022/08/08 06:58:37;;;;;;;6.20;2.00;;;;;;;;;;6262718;28;20415;-59
2022/08/08 07:01:51;;;;;;;5.67;1.97;;;;;;;;;;6262916;28;20048;-60
2022/08/08 07:05:00;;;;;;;5.57;1.77;;;;;;;;;;6261913;28;20075;-60
2022/08/08 07:08:16;;;;;;;5.95;2.00;;;;;;;;;;6262793;28;20057;-59
2022/08/08 07:11:19;;;;;;;6.05;2.20;;;;;;;;;;6262426;28;20133;-60
2022/08/08 07:14:26;;;;;;;5.05;2.47;;;;;;;;;;6262414;28;20514;-60
2022/08/08 07:17:35;;;;;;;6.32;2.30;;;;;;;;;;6257070;28;20465;-61
2022/08/08 07:20:37;;;;;;;5.05;1.88;;;;;;;;;;6260552;28;20109;-60
2022/08/08 07:23:51;;;;;;;3.95;1.75;;;;;;;;;;6266181;28;20041;-60
2022/08/08 07:26:53;;;;;;;4.75;2.30;;;;;;;;;;6265051;28;20049;-61
2022/08/08 07:29:54;;;;;;;7.03;2.10;;;;;;;;;;6268681;28;20056;-60
2022/08/08 07:32:56;;;;;;;5.05;1.92;;;;;;;;;;6280439;28;20131;-60
2022/08/08 07:35:58;;;;;;;5.03;1.63;;;;;;;;;;6287969;28;20429;-60
2022/08/08 07:39:00;;;;;;;4.55;1.58;;;;;;;;;;6287798;28;20131;-61
2022/08/08 07:42:03;;;;;;;5.63;1.70;;;;;;;;;;6293479;28;20068;-60
2022/08/08 07:45:04;;;;;;;3.33;1.52;;;;;;;;;;6289363;28;20139;-58
2022/08/08 07:48:05;;;;;;;6.60;1.80;;;;;;;;;;6289249;28;20048;-60
2022/08/08 07:51:08;;;;;;;2.40;1.40;;;;;;;;;;6287463;28;20102;-61
2022/08/08 07:54:33;;;;;;;4.60;1.35;;;;;;;;;;6272456;28;20128;-61
2022/08/08 07:57:48;;;;;;;3.63;1.80;;;;;;;;;;6267465;28;20478;-59
2022/08/08 08:00:51;;;;;;;4.55;1.50;;;;;;;;;;6266461;28;20069;-60
2022/08/08 08:04:24;;;;;;;4.38;1.70;;;;;;;;;;6268706;28;20053;-60
2022/08/08 08:07:26;;;;;;;4.57;1.35;;;;;;;;;;6277202;28;20586;-58
2022/08/08 08:10:27;;;;;;;;;;;;;;;;;;6286964;28;20050;-60
2022/08/08 08:13:48;;;;;;;3.80;1.70;;;;;;;;;;6286818;28;20323;-60
2022/08/08 08:16:50;;;;;;;2.95;1.42;;;;;;;;;;6268091;28;20051;-60
2022/08/08 08:19:57;;;;;;;4.72;1.60;;;;;;;;;;6262083;28;20490;-60
2022/08/08 08:22:57;;;;;;;6.60;1.90;;;;;;;;;;6265390;28;20090;-60
2022/08/08 08:25:58;;;;;;;3.70;1.80;;;;;;;;;;6259533;28;20578;-60
2022/08/08 08:28:59;;;;;;;7.30;1.97;;;;;;;;;;6267456;28;20047;-60
2022/08/08 08:31:59;;;;;;;4.67;2.23;;;;;;;;;;6279483;28;20044;-60
2022/08/08 08:35:01;;;;;;;4.57;1.70;;;;;;;;;;6287187;28;20048;-60
2022/08/08 08:38:01;;;;;;;6.03;1.90;;;;;;;;;;6291832;28;20139;-60
2022/08/08 08:41:03;;;;;;;4.90;1.70;;;;;;;;;;6287658;28;20417;-61
2022/08/08 08:44:05;;;;;;;4.25;1.75;;;;;;;;;;6291608;28;20098;-61
2022/08/08 08:47:06;;;;;;;3.33;1.67;;;;;;;;;;6283076;28;20057;-60
2022/08/08 08:50:07;;;;;;;3.80;1.70;;;;;;;;;;6288332;28;20506;-61
2022/08/08 08:53:09;;;;;;;4.88;1.75;;;;;;;;;;6289543;28;20043;-60
2022/08/08 08:56:12;;;;;;;4.78;1.80;;;;;;;;;;6276942;28;20439;-61
2022/08/08 08:59:14;;;;;;;5.05;1.60;;;;;;;;;;6267176;28;20041;-60
2022/08/08 09:02:23;;;;;;;5.05;1.73;;;;;;;;;;6265523;28;20095;-59
2022/08/08 09:05:25;;;;;;;5.15;1.80;;;;;;;;;;6268221;28;20063;-61
2022/08/08 09:08:26;;;;;;;8.20;1.80;;;;;;;;;;6267915;28;20049;-61
2022/08/08 09:11:30;;;;;;;7.40;2.10;;;;;;;;;;6267256;28;20150;-60
2022/08/08 09:14:31;;;;;;;4.80;1.77;;;;;;;;;;6269503;28;20111;-61
2022/08/08 09:17:33;;;;;;;4.30;1.90;;;;;;;;;;6264896;28;20144;-60
2022/08/08 09:20:36;;;;;;;5.93;1.92;;;;;;;;;;6264330;28;20692;-59
2022/08/08 09:23:37;;;;;;;5.80;1.70;;;;;;;;;;6262858;28;20071;-59
2022/08/08 09:26:45;;;;;;;4.13;1.97;;;;;;;;;;6258845;28;20045;-61
2022/08/08 09:29:58;;;;;;;4.65;1.80;;;;;;;;;;6265175;28;20136;-61
2022/08/08 09:33:02;;;;;;;4.68;1.83;;;;;;;;;;6265292;28;20060;-60
2022/08/08 09:36:03;;;;;;;6.53;1.77;;;;;;;;;;6262613;28;20487;-61
2022/08/08 09:39:04;;;;;;;5.27;1.90;;;;;;;;;;6265385;28;20118;-61
2022/08/08 09:42:12;;;;;;;3.33;1.70;;;;;;;;;;6267418;28;20041;-61
2022/08/08 09:45:31;;;;;;;5.07;1.70;;;;;;;;;;6263734;28;20052;-61
2022/08/08 09:48:34;;;;;;;10.23;1.92;;;;;;;;;;6261719;28;20056;-61
2022/08/08 09:51:39;;;;;;;7.32;2.00;;;;;;;;;;6259065;28;20053;-61
2022/08/08 09:54:42;;;;;;;3.50;1.70;;;;;;;;;;6262719;28;20384;-60
2022/08/08 09:57:45;;;;;;;7.55;2.08;;;;;;;;;;6265968;28;20041;-60
2022/08/08 10:00:48;;;;;;;5.97;1.70;;;;;;;;;;6266608;28;20526;-61
2022/08/08 10:03:49;;;;;;;7.28;2.10;;;;;;;;;;6278469;28;20136;-61
2022/08/08 10:06:52;;;;;;;8.27;1.98;;;;;;;;;;6284633;28;20135;-61
2022/08/08 10:09:53;;;;;;;6.13;2.45;;;;;;;;;;6280778;28;20049;-61
2022/08/08 10:12:53;;;;;;;6.40;1.63;;;;;;;;;;6274960;28;20882;-61
2022/08/08 10:15:57;;;;;;;6.07;1.93;;;;;;;;;;6279441;28;20044;-61
2022/08/08 10:19:03;;;;;;;4.22;1.65;;;;;;;;;;6277315;28;20140;-61
2022/08/08 10:22:05;;;;;;;5.60;2.28;;;;;;;;;;6263964;28;20071;-60
2022/08/08 10:25:07;;;;;;;6.13;2.15;;;;;;;;;;6267528;28;20046;-61
2022/08/08 10:28:15;;;;;;;4.53;1.90;;;;;;;;;;6282222;28;20051;-61
2022/08/08 10:34:48;;;;;;;5.40;2.05;;;;;;;;;;6280896;28;20037;-60
2022/08/08 10:37:55;;;;;;;4.75;1.85;;;;;;;;;;6281609;28;20143;-61
2022/08/08 10:41:01;;;;;;;8.80;2.47;;;;;;;;;;6283365;28;20045;-61
2022/08/08 10:44:03;;;;;;;6.18;1.92;;;;;;;;;;6266976;28;20590;-61
2022/08/08 10:47:07;;;;;;;;;;;;;;;;;;6264604;28;20052;-61
2022/08/08 10:50:08;;;;;;;5.55;2.00;;;;;;;;;;6263537;28;19929;-61
2022/08/08 10:53:10;;;;;;;6.75;3.53;;;;;;;;;;6260907;28;20068;-61
2022/08/08 10:56:11;;;;;;;6.78;1.90;;;;;;;;;;6263347;28;20414;-61
2022/08/08 10:59:12;;;;;;;6.63;2.00;;;;;;;;;;6279136;28;20530;-61
2022/08/08 11:02:12;;;;;;;4.97;2.10;;;;;;;;;;6287829;28;20040;-63
2022/08/08 11:05:13;;;;;;;4.80;2.10;;;;;;;;;;6292445;28;20060;-63
2022/08/08 11:08:22;;;;;;;4.90;1.97;;;;;;;;;;6286595;28;20143;-62
2022/08/08 11:11:23;;;;;;;5.10;2.08;;;;;;;;;;6286573;28;20059;-61
2022/08/08 11:14:24;;;;;;;3.97;1.90;;;;;;;;;;6290490;28;20682;-62
2022/08/08 11:17:27;;;;;;;5.27;2.17;;;;;;;;;;6292605;28;20048;-60
2022/08/08 11:20:28;;;;;;;3.22;1.98;;;;;;;;;;6284301;28;20139;-61
2022/08/08 11:23:33;;;;;;;6.70;2.35;;;;;;;;;;6267931;28;20048;-60
2022/08/08 11:26:37;;;;;;;3.88;1.85;;;;;;;;;;6265556;28;20232;-60
2022/08/08 11:29:41;;;;;;;6.00;2.10;;;;;;;;;;6274735;28;20139;-61
2022/08/08 11:32:42;;;;;;;6.43;2.20;;;;;;;;;;6287392;28;20048;-61
2022/08/08 11:35:43;;;;;;;3.93;1.90;;;;;;;;;;6290832;28;20097;-59
2022/08/08 11:38:47;;;;;;;5.82;2.20;;;;;;;;;;6287738;28;20147;-61
2022/08/08 11:41:49;;;;;;;3.90;2.42;;;;;;;;;;6284156;28;20049;-61
2022/08/08 11:44:55;;;;;;;4.78;2.10;;;;;;;;;;6268937;28;20052;-62
2022/08/08 11:47:56;;;;;;;5.18;2.08;;;;;;;;;;6265722;28;20449;-61
2022/08/08 11:50:58;;;;;;;5.90;2.10;;;;;;;;;;6274587;28;20136;-62
2022/08/08 11:53:59;;;;;;;6.07;2.15;;;;;;;;;;6285206;28;20044;-62
2022/08/08 11:57:10;;;;;;;5.82;2.10;;;;;;;;;;6289082;28;20048;-61
2022/08/08 12:00:16;;;;;;;8.05;2.17;;;;;;;;;;6284472;28;20411;-61
2022/08/08 12:03:32;;;;;;;5.47;1.90;;;;;;;;;;6287800;28;20122;-62
2022/08/08 12:06:33;;;;;;;6.45;2.65;;;;;;;;;;6287492;28;20140;-62
2022/08/08 12:09:34;;;;;;;4.43;2.27;;;;;;;;;;6279084;28;20411;-60
2022/08/08 12:12:43;;;;;;;5.68;2.10;;;;;;;;;;6265286;28;20050;-60
2022/08/08 12:15:47;;;;;;;5.30;2.17;;;;;;;;;;6266640;28;20526;-60
2022/08/08 12:18:52;;;;;;;4.55;2.10;;;;;;;;;;6261467;28;20404;-62
2022/08/08 12:22:04;;;;;;;5.03;2.47;;;;;;;;;;6268236;28;20142;-61
2022/08/08 12:25:05;;;;;;;5.35;2.40;;;;;;;;;;6262370;28;20052;-61
2022/08/08 12:28:14;;;;;;;3.95;2.10;;;;;;;;;;6259215;28;20164;-61
2022/08/08 12:31:15;;;;;;;4.00;2.13;;;;;;;;;;6267737;28;20164;-60
2022/08/08 12:34:16;;;;;;;6.17;1.93;;;;;;;;;;6264897;28;20488;-62
2022/08/08 12:37:20;;;;;;;6.70;2.27;;;;;;;;;;6267194;28;20045;-61
2022/08/08 12:40:21;;;;;;;6.40;2.45;;;;;;;;;;6268661;28;20508;-60
2022/08/08 12:43:32;;;;;;;6.37;2.43;;;;;;;;;;6274272;28;20045;-61
2022/08/08 12:46:33;;;;;;;4.25;2.03;;;;;;;;;;6278049;28;20560;-61
2022/08/08 12:49:36;;;;;;;6.03;2.40;;;;;;;;;;6264904;28;20045;-61
2022/08/08 12:52:38;;;;;;;6.07;2.40;;;;;;;;;;6262649;28;20523;-61
2022/08/08 12:56:00;;;;;;;5.07;2.38;;;;;;;;;;6262955;28;20040;-60
2022/08/08 12:59:15;;;;;;;5.88;2.53;;;;;;;;;;6267785;28;20050;-60
2022/08/08 13:02:26;;;;;;;5.07;2.50;;;;;;;;;;6260511;28;20135;-60
2022/08/08 13:05:27;;;;;;;6.82;2.55;;;;;;;;;;6269843;28;20505;-60
2022/08/08 13:08:41;;;;;;;7.80;2.50;;;;;;;;;;6263867;28;20060;-59
2022/08/08 13:11:52;;;;;;;5.10;2.55;;;;;;;;;;6265700;28;20044;-61
2022/08/08 13:14:55;;;;;;;7.13;2.30;;;;;;;;;;6264100;28;20045;-60
2022/08/08 13:17:57;;;;;;;6.35;2.13;;;;;;;;;;6264062;28;20474;-61
2022/08/08 13:20:58;;;;;;;7.10;2.80;;;;;;;;;;6265595;28;20051;-62
2022/08/08 13:23:59;;;;;;;4.20;2.30;;;;;;;;;;6264062;28;20560;-59
2022/08/08 13:27:02;;;;;;;5.37;2.50;;;;;;;;;;6262979;28;20298;-61
2022/08/08 13:30:05;;;;;;;5.53;2.40;;;;;;;;;;6264146;28;20714;-60
2022/08/08 13:33:05;;;;;;;4.50;2.30;;;;;;;;;;6274848;28;20487;-61
2022/08/08 13:36:06;;;;;;;5.37;2.67;;;;;;;;;;6284765;28;20045;-61
2022/08/08 13:39:07;;;;;;;4.67;2.27;;;;;;;;;;6283934;28;20131;-61
2022/08/08 13:42:07;;;;;;;10.77;3.20;;;;;;;;;;6288370;28;20381;-60
2022/08/08 13:45:11;;;;;;;4.93;2.43;;;;;;;;;;6280291;28;20169;-60
2022/08/08 13:48:13;;;;;;;5.63;2.35;;;;;;;;;;6283367;28;20048;-61
2022/08/08 13:51:15;;;;;;;6.30;2.33;;;;;;;;;;6287111;28;20528;-60
2022/08/08 13:54:19;;;;;;;;;;;;;;;;;;6288949;28;20127;-60
2022/08/08 13:57:26;;;;;;;5.80;2.10;;;;;;;;;;6273233;28;19925;-60
2022/08/08 14:00:27;;;;;;;7.88;2.65;;;;;;;;;;6253589;28;20449;-61
2022/08/08 14:03:28;;;;;;;5.90;2.50;;;;;;;;;;6257561;28;20049;-61
2022/08/08 14:06:29;;;;;;;;;;;;;;;;;;6255984;28;20557;-61
2022/08/08 14:09:39;;;;;;;7.70;2.55;;;;;;;;;;6253709;28;19925;-61
2022/08/08 14:12:42;;;;;;;4.68;2.25;;;;;;;;;;6255551;28;20074;-60
2022/08/08 14:15:44;;;;;;;7.53;2.75;;;;;;;;;;6256391;28;20061;-61
2022/08/08 14:18:56;;;;;;;6.88;2.75;;;;;;;;;;6253917;28;20077;-61
2022/08/08 14:21:57;;;;;;;5.85;2.60;;;;;;;;;;6257930;28;20143;-61
2022/08/08 14:25:01;;;;;;;6.47;3.00;;;;;;;;;;6256061;28;20480;-61
2022/08/08 14:28:07;;;;;;;5.97;3.08;;;;;;;;;;6252756;28;20056;-61
2022/08/08 14:31:09;;;;;;;6.35;2.60;;;;;;;;;;6255054;28;20049;-61
2022/08/08 14:34:10;;;;;;;5.40;2.63;;;;;;;;;;6257938;28;20061;-61
2022/08/08 14:37:16;;;;;;;5.40;2.40;;;;;;;;;;6253042;28;20049;-59
2022/08/08 14:40:22;;;;;;;6.05;2.53;;;;;;;;;;6253204;28;20052;-60
2022/08/08 14:43:26;;;;;;;5.13;2.33;;;;;;;;;;6255952;28;20045;-61
2022/08/08 14:46:29;;;;;;;5.05;2.50;;;;;;;;;;6258303;28;20053;-61
2022/08/08 14:49:33;;;;;;;5.65;2.20;;;;;;;;;;6258191;28;20075;-60
2022/08/08 14:52:42;;;;;;;5.00;2.53;;;;;;;;;;6259506;28;20552;-61
2022/08/08 14:55:43;;;;;;;6.85;2.40;;;;;;;;;;6257153;28;20063;-59
2022/08/08 14:58:44;;;;;;;6.03;2.83;;;;;;;;;;6256346;28;20061;-61
2022/08/08 15:01:46;;;;;;;6.75;2.45;;;;;;;;;;6256435;28;20102;-61
2022/08/08 15:04:46;;;;;;;5.82;2.38;;;;;;;;;;6251555;28;20056;-60
2022/08/08 15:07:47;;;;;;;8.40;2.97;;;;;;;;;;6250713;28;20052;-61
2022/08/08 15:10:48;;;;;;;6.60;2.30;;;;;;;;;;6252612;28;20048;-61
2022/08/08 15:13:49;;;;;;;5.70;2.63;;;;;;;;;;6252473;28;20044;-61
2022/08/08 15:16:49;;;;;;;5.25;2.47;;;;;;;;;;6249806;28;20048;-60
2022/08/08 15:19:50;;;;;;;6.87;2.53;;;;;;;;;;6250106;28;20052;-60
2022/08/08 15:22:51;;;;;;;6.23;2.50;;;;;;;;;;6252002;28;20037;-63
2022/08/08 15:25:52;;;;;;;5.70;2.53;;;;;;;;;;6253512;28;20305;-61
2022/08/08 15:28:52;;;;;;;5.60;2.70;;;;;;;;;;6249973;28;20064;-61
2022/08/08 15:31:53;;;;;;;7.87;2.60;;;;;;;;;;6255445;28;20052;-61
2022/08/08 15:34:57;;;;;;;7.37;2.40;;;;;;;;;;6255609;28;20188;-60
2022/08/08 15:37:58;;;;;;;6.88;2.63;;;;;;;;;;6255514;28;20479;-61
2022/08/08 15:40:58;;;;;;;5.93;2.70;;;;;;;;;;6253050;28;20045;-61
2022/08/08 15:43:59;;;;;;;6.93;2.83;;;;;;;;;;6258057;28;20040;-61
2022/08/08 15:46:59;;;;;;;7.20;2.77;;;;;;;;;;6253101;28;20065;-62
2022/08/08 15:50:01;;;;;;;5.60;2.43;;;;;;;;;;6256159;28;20060;-60
2022/08/08 15:53:01;;;;;;;;;;;;;;;;;;6253658;28;21306;-59
2022/08/08 15:56:02;;;;;;;4.65;2.00;;;;;;;;;;6254029;28;19971;-60
2022/08/08 15:59:03;;;;;;;7.37;2.50;;;;;;;;;;6252517;28;20609;-60
2022/08/08 16:02:05;;;;;;;5.73;2.40;;;;;;;;;;6256985;28;20052;-61
2022/08/08 16:05:06;;;;;;;4.60;2.25;;;;;;;;;;6255205;28;20049;-60
2022/08/08 16:08:06;;;;;;;7.38;2.60;;;;;;;;;;6252940;28;20055;-60
2022/08/08 16:11:07;;;;;;;6.73;3.33;;;;;;;;;;6256595;28;20041;-60
2022/08/08 16:14:10;;;;;;;6.85;3.00;;;;;;;;;;6251731;28;20081;-59
2022/08/08 16:17:12;;;;;;;5.97;3.00;;;;;;;;;;6255614;28;20059;-61
2022/08/08 16:20:13;;;;;;;5.10;2.50;;;;;;;;;;6254106;28;20077;-61
2022/08/08 16:23:13;;;;;;;8.07;2.97;;;;;;;;;;6256910;28;20061;-62
2022/08/08 16:26:14;;;;;;;6.87;3.27;;;;;;;;;;6253047;28;20067;-62
2022/08/08 16:29:19;;;;;;;6.53;2.90;;;;;;;;;;6253368;28;20049;-60
2022/08/08 16:32:20;;;;;;;6.45;2.88;;;;;;;;;;6256462;28;20135;-58
2022/08/08 16:35:21;;;;;;;10.65;2.85;;;;;;;;;;6256371;28;20479;-61
2022/08/08 16:38:22;;;;;;;8.60;3.40;;;;;;;;;;6254562;28;20105;-60
2022/08/08 16:41:23;;;;;;;10.17;2.90;;;;;;;;;;6254104;28;20443;-58
2022/08/08 16:44:24;;;;;;;7.53;3.30;;;;;;;;;;6254558;28;20049;-59
2022/08/08 16:47:26;;;;;;;8.57;3.27;;;;;;;;;;6254736;28;20419;-60
2022/08/08 16:50:27;;;;;;;7.57;3.10;;;;;;;;;;6257566;28;20143;-58
2022/08/08 16:53:27;;;;;;;8.47;3.33;;;;;;;;;;6256987;28;20048;-59
2022/08/08 16:56:28;;;;;;;6.57;3.17;;;;;;;;;;6258676;28;20060;-59
2022/08/08 16:59:29;;;;;;;9.20;3.45;;;;;;;;;;6257501;28;20325;-60
2022/08/08 17:02:29;;;;;;;5.80;3.30;;;;;;;;;;6260124;28;20053;-61
2022/08/08 17:05:30;;;;;;;9.07;3.20;;;;;;;;;;6258832;28;20049;-60
2022/08/08 17:08:31;;;;;;;9.00;3.73;;;;;;;;;;6257036;28;20463;-60
2022/08/08 17:11:32;;;;;;;5.73;2.80;;;;;;;;;;6259128;28;21544;-60
2022/08/08 17:14:34;;;;;;;7.60;2.85;;;;;;;;;;6258367;28;20082;-59
2022/08/08 17:17:34;;;;;;;7.85;3.50;;;;;;;;;;6256360;28;20435;-60
2022/08/08 17:20:35;;;;;;;5.87;2.70;;;;;;;;;;6256501;28;20052;-60
2022/08/08 17:23:35;;;;;;;8.63;3.00;;;;;;;;;;6260061;28;20060;-59
2022/08/08 17:26:36;;;;;;;8.83;3.00;;;;;;;;;;6257958;28;20442;-60
2022/08/08 17:29:36;;;;;;;7.60;3.30;;;;;;;;;;6259902;28;20049;-60
2022/08/08 17:32:37;;;;;;;7.27;3.10;;;;;;;;;;6256354;28;20049;-59
2022/08/08 17:35:37;;;;;;;7.90;2.80;;;;;;;;;;6253026;28;20884;-60
2022/08/08 17:38:38;;;;;;;7.70;3.00;;;;;;;;;;6257831;28;20072;-59
2022/08/08 17:41:40;;;;;;;9.80;3.17;;;;;;;;;;6258296;28;20171;-60
2022/08/08 17:44:40;;;;;;;;;;;;;;;;;;6259449;28;20776;-59
2022/08/08 17:47:41;;;;;;;7.13;3.20;;;;;;;;;;6255969;28;19978;-59
2022/08/08 17:50:42;;;;;;;10.63;2.97;;;;;;;;;;6257077;28;20053;-60
2022/08/08 17:53:43;;;;;;;6.30;3.08;;;;;;;;;;6255858;28;20064;-58
2022/08/08 17:56:43;;;;;;;11.07;3.20;;;;;;;;;;6254196;28;20495;-59
2022/08/08 17:59:44;;;;;;;6.77;3.00;;;;;;;;;;6254680;28;20049;-58
2022/08/08 18:02:44;;;;;;;7.37;3.40;;;;;;;;;;6260972;28;20049;-60
2022/08/08 18:05:45;;;;;;;10.43;3.60;;;;;;;;;;6258796;28;20053;-60
2022/08/08 18:08:45;;;;;;;10.53;3.40;;;;;;;;;;6258867;28;20495;-60
2022/08/08 18:11:46;;;;;;;10.17;3.73;;;;;;;;;;6257140;28;20060;-59
2022/08/08 18:14:47;;;;;;;13.17;4.70;;;;;;;;;;6256862;28;20068;-60
2022/08/08 18:17:48;;;;;;;13.65;5.18;;;;;;;;;;6257699;28;20045;-59
2022/08/08 18:20:48;;;;;;;13.20;6.33;;;;;;;;;;6257705;28;20068;-60
2022/08/08 18:23:49;;;;;;;14.17;6.23;;;;;;;;;;6257689;28;20048;-59
2022/08/08 18:26:52;;;;;;;16.80;5.87;;;;;;;;;;6254686;28;20063;-60
2022/08/08 18:29:53;;;;;;;14.35;6.30;;;;;;;;;;6256423;28;20059;-61
2022/08/08 18:32:53;;;;;;;17.63;6.53;;;;;;;;;;6257767;28;20299;-61
2022/08/08 18:35:54;;;;;;;12.37;6.93;;;;;;;;;;6257807;28;20049;-60
2022/08/08 18:38:56;;;;;;;12.17;5.73;;;;;;;;;;6255960;28;20049;-59
2022/08/08 18:41:57;;;;;;;13.20;4.85;;;;;;;;;;6256505;28;20056;-61
2022/08/08 18:44:58;;;;;;;15.50;5.13;;;;;;;;;;6256356;28;20049;-60
2022/08/08 18:47:58;;;;;;;10.50;4.80;;;;;;;;;;6255367;28;20518;-60